createdAt,value
2019-04-05T00:00:02.791Z,69.50
2019-04-05T00:02:32.749Z,69.90
2019-04-05T00:05:02.766Z,69.50
2019-04-05T00:07:32.689Z,69.30
2019-04-05T00:10:02.766Z,69.70
2019-04-05T00:12:32.763Z,69.10
2019-04-05T00:15:14.521Z,69.00
2019-04-05T00:17:34.736Z,69.50
2019-04-05T00:20:05.456Z,70.40
2019-04-05T00:22:35.419Z,70.60
2019-04-05T00:25:05.395Z,68.70
2019-04-05T00:27:35.404Z,70.70
2019-04-05T00:30:05.898Z,68.80
2019-04-05T00:32:35.965Z,69.30
2019-04-05T00:35:06.982Z,69.80
2019-04-05T00:37:36.978Z,69.60
2019-04-05T00:40:07.866Z,70.20
2019-04-05T00:42:37.844Z,71.60
2019-04-05T00:45:08.135Z,71.40
2019-04-05T00:47:38.099Z,70.80
2019-04-05T00:50:08.108Z,69.30
2019-04-05T00:52:38.002Z,69.70
2019-04-05T00:55:10.673Z,70.30
2019-04-05T00:57:40.674Z,69.80
2019-04-05T01:00:10.654Z,70.00
2019-04-05T01:02:40.646Z,70.70
2019-04-05T01:05:10.614Z,70.10
2019-04-05T01:07:40.578Z,70.90
2019-04-05T01:10:10.552Z,70.30
2019-04-05T01:12:40.815Z,71.60
2019-04-05T01:15:13.712Z,70.30
2019-04-05T01:17:43.653Z,70.70
2019-04-05T01:20:14.900Z,70.70
2019-04-05T01:22:45.182Z,71.40
2019-04-05T01:25:15.141Z,69.20
2019-04-05T01:27:45.069Z,70.10
2019-04-05T01:30:15.369Z,71.30
2019-04-05T01:32:45.377Z,70.30
2019-04-05T01:35:16.743Z,71.10
2019-04-05T01:37:46.754Z,71.00
2019-04-05T01:40:16.734Z,71.50
2019-04-05T01:42:46.725Z,71.50
2019-04-05T01:45:16.713Z,72.70
2019-04-05T01:47:46.705Z,71.20
2019-04-05T01:50:16.603Z,72.10
2019-04-05T01:52:46.673Z,72.70
2019-04-05T01:55:16.666Z,72.10
2019-04-05T01:57:46.579Z,71.20
2019-04-05T02:00:16.572Z,71.50
2019-04-05T02:02:46.695Z,71.70
2019-04-05T02:05:16.670Z,71.70
2019-04-05T02:07:46.681Z,70.40
2019-04-05T02:10:17.965Z,71.60
2019-04-05T02:12:47.915Z,71.50
2019-04-05T02:15:25.407Z,71.30
2019-04-05T02:17:55.452Z,72.50
2019-04-05T02:20:25.406Z,71.20
2019-04-05T02:22:55.491Z,72.10
2019-04-05T02:25:25.509Z,71.70
2019-04-05T02:27:55.488Z,71.90
2019-04-05T02:30:25.406Z,72.10
2019-04-05T02:32:55.483Z,72.30
2019-04-05T02:35:25.522Z,73.00
2019-04-05T02:37:55.488Z,71.40
2019-04-05T02:40:25.449Z,72.50
2019-04-05T02:42:55.436Z,72.80
2019-04-05T02:45:25.409Z,72.80
2019-04-05T02:47:59.098Z,73.00
2019-04-05T02:50:29.811Z,72.80
2019-04-05T02:53:00.589Z,72.30
2019-04-05T02:55:30.728Z,72.60
2019-04-05T02:58:00.840Z,72.30
2019-04-05T03:00:30.994Z,72.70
2019-04-05T03:03:01.805Z,72.20
2019-04-05T03:05:31.844Z,72.60
2019-04-05T03:08:01.817Z,73.90
2019-04-05T03:11:07.002Z,73.70
2019-04-05T03:13:39.163Z,74.20
2019-04-05T03:16:14.262Z,74.50
2019-04-05T03:18:49.961Z,74.80
2019-04-05T03:21:23.779Z,75.20
2019-04-05T03:23:53.809Z,75.40
2019-04-05T03:26:25.439Z,75.70
2019-04-05T03:28:56.027Z,75.60
2019-04-05T03:31:26.216Z,75.90
2019-04-05T03:59:36.866Z,77.60
2019-04-05T04:06:20.914Z,77.60
2019-04-05T04:08:57.880Z,78.00
2019-04-05T04:11:27.898Z,78.80
2019-04-05T04:14:07.241Z,78.90
2019-04-05T04:16:37.333Z,79.70
2019-04-05T04:19:07.933Z,80.10
2019-04-05T04:25:10.681Z,80.00
2019-04-05T04:28:43.199Z,80.20
2019-04-05T04:31:19.835Z,80.30
2019-04-05T04:34:05.459Z,79.40
2019-04-05T04:36:48.634Z,80.00
2019-04-05T04:39:22.629Z,80.50
2019-04-05T04:42:06.988Z,80.50
2019-04-05T04:44:44.044Z,81.10
2019-04-05T04:48:14.556Z,81.00
2019-04-05T04:51:33.280Z,81.00
2019-04-05T04:55:03.422Z,81.00
2019-04-05T04:58:14.933Z,82.10
2019-04-05T05:00:46.629Z,82.30
2019-04-05T05:05:58.212Z,82.10
2019-04-05T05:36:39.351Z,81.10
2019-04-05T05:42:58.147Z,80.80
2019-04-05T05:46:21.624Z,79.50
2019-04-05T05:48:57.781Z,80.80
2019-04-05T05:51:27.845Z,80.90
2019-04-05T05:54:07.072Z,80.40
2019-04-05T05:56:37.620Z,80.60
2019-04-05T05:59:07.942Z,80.00
2019-04-05T06:01:37.996Z,79.90
2019-04-05T06:04:08.043Z,80.10
2019-04-05T06:06:38.107Z,79.70
2019-04-05T06:09:08.913Z,79.60
2019-04-05T06:11:58.098Z,79.60
2019-04-05T06:14:28.878Z,79.60
2019-04-05T06:17:05.160Z,79.60
2019-04-05T06:19:36.424Z,79.90
2019-04-05T06:22:06.417Z,79.40
2019-04-05T06:24:36.441Z,79.20
2019-04-05T06:27:06.414Z,79.70
2019-04-05T06:29:36.423Z,79.20
2019-04-05T06:32:06.359Z,79.50
2019-04-05T06:34:36.383Z,79.50
2019-04-05T06:37:06.317Z,80.20
2019-04-05T06:39:36.303Z,80.30
2019-04-05T06:42:06.290Z,80.30
2019-04-05T06:44:36.291Z,80.50
2019-04-05T06:47:06.237Z,80.40
2019-04-05T06:49:36.285Z,80.10
2019-04-05T06:52:06.244Z,80.30
2019-04-05T06:54:36.265Z,78.80
2019-04-05T06:57:06.200Z,79.10
2019-04-05T06:59:36.206Z,79.30
2019-04-05T07:02:06.353Z,78.90
2019-04-05T07:04:36.314Z,78.40
2019-04-05T07:07:06.335Z,77.80
2019-04-05T07:09:36.386Z,78.30
2019-04-05T07:12:06.368Z,78.40
2019-04-05T07:14:36.316Z,78.70
2019-04-05T07:17:06.328Z,78.80
2019-04-05T07:19:39.410Z,78.80
2019-04-05T07:22:09.485Z,79.60
2019-04-05T07:24:39.452Z,78.90
2019-04-05T07:27:09.466Z,78.50
2019-04-05T07:29:39.461Z,77.90
2019-04-05T07:32:10.749Z,78.20
2019-04-05T07:34:40.777Z,78.20
2019-04-05T07:37:10.888Z,78.10
2019-04-05T07:39:40.833Z,78.00
2019-04-05T07:42:10.825Z,78.10
2019-04-05T07:44:41.018Z,77.60
2019-04-05T07:47:11.149Z,77.30
2019-04-05T07:49:41.167Z,77.60
2019-04-05T07:52:13.012Z,77.30
2019-04-05T07:54:42.771Z,77.60
2019-04-05T07:57:12.823Z,77.00
2019-04-05T07:59:45.481Z,77.80
2019-04-05T08:02:15.431Z,76.70
2019-04-05T08:04:45.731Z,76.50
2019-04-05T08:07:15.703Z,76.50
2019-04-05T08:09:45.730Z,77.10
2019-04-05T08:12:15.702Z,77.00
2019-04-05T08:14:47.109Z,76.80
2019-04-05T08:17:17.130Z,78.10
2019-04-05T08:19:47.154Z,76.80
2019-04-05T08:22:17.203Z,77.50
2019-04-05T08:24:47.166Z,76.70
2019-04-05T08:27:17.089Z,78.30
2019-04-05T08:29:47.180Z,77.60
2019-04-05T08:32:17.177Z,77.80
2019-04-05T08:34:47.192Z,77.50
2019-04-05T08:37:17.181Z,79.10
2019-04-05T08:39:47.213Z,78.30
2019-04-05T08:42:17.174Z,77.10
2019-04-05T08:44:47.168Z,77.20
2019-04-05T08:47:17.108Z,76.00
2019-04-05T08:49:47.066Z,75.50
2019-04-05T08:52:17.034Z,74.50
2019-04-05T08:54:47.023Z,74.30
2019-04-05T08:57:17.019Z,73.80
2019-04-05T08:59:47.385Z,74.20
2019-04-05T09:02:17.376Z,74.30
2019-04-05T09:04:47.433Z,74.20
2019-04-05T09:07:17.421Z,74.50
2019-04-05T09:09:47.427Z,73.90
2019-04-05T09:12:17.343Z,74.50
2019-04-05T09:14:47.617Z,74.40
2019-04-05T09:17:17.589Z,74.00
2019-04-05T09:19:47.589Z,74.00
2019-04-05T09:22:17.539Z,73.20
2019-04-05T09:24:47.597Z,73.30
2019-04-05T09:27:17.570Z,72.60
2019-04-05T09:29:47.591Z,74.00
2019-04-05T09:32:17.511Z,73.60
2019-04-05T09:34:47.534Z,73.30
2019-04-05T09:37:17.494Z,72.70
2019-04-05T09:39:47.452Z,72.80
2019-04-05T09:42:17.468Z,72.20
2019-04-05T09:44:47.535Z,72.40
2019-04-05T09:47:17.528Z,72.70
2019-04-05T09:49:47.544Z,73.20
2019-04-05T09:52:17.530Z,73.90
2019-04-05T09:54:47.526Z,73.20
2019-04-05T09:57:17.474Z,73.00
2019-04-05T09:59:47.404Z,73.00
2019-04-05T10:02:17.404Z,72.80
2019-04-05T10:04:47.409Z,73.00
2019-04-05T10:07:17.369Z,72.70
2019-04-05T10:09:50.150Z,72.80
2019-04-05T10:12:18.941Z,71.90
2019-04-05T10:14:48.877Z,71.90
2019-04-05T10:17:18.869Z,71.80
2019-04-05T10:19:50.353Z,71.60
2019-04-05T10:22:20.472Z,72.90
2019-04-05T10:24:50.828Z,73.10
2019-04-05T10:27:23.021Z,73.00
2019-04-05T10:29:52.436Z,73.00
2019-04-05T10:32:22.412Z,72.00
2019-04-05T10:34:52.720Z,71.90
2019-04-05T10:37:22.699Z,71.40
2019-04-05T10:39:54.933Z,72.50
2019-04-05T10:42:31.893Z,72.70
2019-04-05T10:45:01.976Z,72.50
2019-04-05T10:47:31.977Z,73.20
2019-04-05T10:50:03.352Z,72.90
2019-04-05T10:52:33.704Z,72.70
2019-04-05T10:55:03.714Z,72.70
2019-04-05T10:57:33.762Z,73.10
2019-04-05T11:00:04.292Z,73.10
2019-04-05T11:02:36.805Z,74.00
2019-04-05T11:05:30.027Z,74.10
2019-04-05T11:08:18.193Z,73.40
2019-04-05T11:11:11.306Z,73.80
2019-04-05T11:13:50.968Z,73.20
2019-04-05T11:16:20.910Z,73.90
2019-04-05T11:19:02.711Z,73.60
2019-04-05T11:21:32.605Z,74.70
2019-04-05T11:24:02.582Z,74.60
2019-04-05T11:26:32.455Z,73.50
2019-04-05T11:29:02.455Z,73.80
2019-04-05T11:31:32.463Z,76.20
2019-04-05T11:34:02.467Z,76.40
2019-04-05T11:36:32.478Z,75.20
2019-04-05T11:39:05.691Z,73.10
2019-04-05T11:41:36.215Z,72.60
2019-04-05T11:44:07.800Z,76.10
2019-04-05T11:46:38.086Z,74.00
2019-04-05T11:49:12.141Z,73.90
2019-04-05T11:51:43.230Z,73.70
2019-04-05T11:54:13.841Z,73.00
2019-04-05T11:56:44.429Z,72.90
2019-04-05T11:59:17.356Z,74.30
2019-04-05T12:01:58.326Z,75.60
2019-04-05T12:04:28.375Z,72.60
2019-04-05T12:07:00.640Z,72.60
2019-04-05T12:09:37.852Z,75.40
2019-04-05T12:12:08.095Z,72.00
2019-04-05T12:14:43.363Z,74.00
2019-04-05T12:17:13.388Z,73.70
2019-04-05T12:19:45.111Z,71.50
2019-04-05T12:22:19.938Z,71.30
2019-04-05T12:24:49.576Z,72.30
2019-04-05T12:27:20.900Z,71.40
2019-04-05T12:29:51.067Z,72.70
2019-04-05T12:32:33.506Z,71.60
2019-04-05T12:34:56.207Z,71.60
2019-04-05T12:37:26.234Z,72.30
2019-04-05T12:39:56.189Z,71.30
2019-04-05T12:42:26.332Z,70.90
2019-04-05T12:44:56.434Z,70.80
2019-04-05T12:47:26.419Z,70.90
2019-04-05T12:49:56.397Z,71.50
2019-04-05T12:52:27.622Z,71.40
2019-04-05T12:54:58.107Z,70.60
2019-04-05T12:57:28.415Z,69.60
2019-04-05T12:59:58.704Z,71.30
2019-04-05T13:02:34.005Z,69.80
2019-04-05T13:05:00.522Z,68.00
2019-04-05T13:07:34.879Z,70.20
2019-04-05T13:10:03.945Z,70.90
2019-04-05T13:12:34.238Z,71.10
2019-04-05T13:15:12.900Z,68.80
2019-04-05T13:17:39.062Z,67.70
2019-04-05T13:20:10.395Z,66.80
2019-04-05T13:22:40.545Z,67.50
2019-04-05T13:25:11.523Z,66.50
2019-04-05T13:27:42.206Z,67.10
2019-04-05T13:30:12.280Z,67.80
2019-04-05T13:32:42.262Z,67.10
2019-04-05T13:35:12.383Z,66.30
2019-04-05T13:37:42.362Z,66.90
2019-04-05T13:40:12.548Z,67.30
2019-04-05T13:42:42.538Z,67.10
2019-04-05T13:45:13.152Z,66.40
2019-04-05T13:47:43.226Z,66.30
2019-04-05T13:50:13.464Z,67.10
2019-04-05T13:52:43.545Z,66.10
2019-04-05T13:55:13.554Z,65.40
2019-04-05T13:57:43.579Z,66.80
2019-04-05T14:00:17.529Z,65.70
2019-04-05T14:02:45.685Z,66.20
2019-04-05T14:05:15.661Z,65.90
2019-04-05T14:07:45.734Z,65.90
2019-04-05T14:10:16.818Z,66.10
2019-04-05T14:12:46.834Z,66.00
2019-04-05T14:15:16.864Z,64.20
2019-04-05T14:17:50.062Z,67.10
2019-04-05T14:20:20.121Z,65.80
2019-04-05T14:22:52.362Z,64.40
2019-04-05T14:25:26.047Z,63.00
2019-04-05T14:27:55.395Z,62.90
2019-04-05T14:30:25.510Z,64.00
2019-04-05T14:32:56.670Z,63.70
2019-04-05T14:35:27.269Z,64.00
2019-04-05T14:37:57.339Z,62.90
2019-04-05T14:40:28.893Z,63.50
2019-04-05T14:42:58.959Z,64.50
2019-04-05T14:45:28.935Z,63.80
2019-04-05T14:47:58.967Z,64.80
2019-04-05T14:50:29.089Z,64.70
2019-04-05T14:53:01.754Z,63.30
2019-04-05T14:55:32.308Z,62.60
2019-04-05T14:58:05.229Z,63.70
2019-04-05T15:00:34.043Z,62.80
2019-04-05T15:03:04.028Z,62.40
2019-04-05T15:05:34.133Z,61.80
2019-04-05T15:08:04.105Z,61.80
2019-04-05T15:10:34.544Z,63.30
2019-04-05T15:13:04.583Z,63.50
2019-04-05T15:15:34.657Z,61.40
2019-04-05T15:18:04.702Z,61.50
2019-04-05T15:20:34.815Z,60.50
2019-04-05T15:23:05.557Z,62.00
2019-04-05T15:25:35.805Z,61.30
2019-04-05T15:28:05.845Z,61.20
2019-04-05T15:30:36.992Z,61.00
2019-04-05T15:33:07.168Z,59.80
2019-04-05T15:35:38.431Z,60.30
2019-04-05T15:38:11.612Z,62.00
2019-04-05T15:40:42.671Z,61.40
2019-04-05T15:43:12.763Z,58.80
2019-04-05T15:45:44.140Z,58.50
2019-04-05T15:48:14.117Z,58.40
2019-04-05T15:50:44.147Z,58.70
2019-04-05T15:53:14.139Z,58.10
2019-04-05T15:55:44.555Z,57.70
2019-04-05T15:58:14.676Z,58.10
2019-04-05T16:00:44.981Z,58.30
2019-04-05T16:03:15.581Z,58.70
2019-04-05T16:05:45.590Z,57.80
2019-04-05T16:08:16.814Z,57.90
2019-04-05T16:10:46.989Z,58.20
2019-04-05T16:13:17.172Z,58.00
2019-04-05T16:15:50.514Z,58.80
2019-04-05T16:18:20.516Z,58.30
2019-04-05T16:20:50.549Z,58.60
2019-04-05T16:23:20.772Z,59.30
2019-04-05T16:25:50.808Z,58.50
2019-04-05T16:28:20.864Z,58.70
2019-04-05T16:30:50.894Z,58.60
2019-04-05T16:33:20.969Z,59.40
2019-04-05T16:35:51.044Z,58.90
2019-04-05T16:38:22.960Z,59.10
2019-04-05T16:40:53.128Z,59.10
2019-04-05T16:43:23.234Z,59.30
2019-04-05T16:45:53.238Z,58.30
2019-04-05T16:48:23.382Z,59.40
2019-04-05T16:51:02.984Z,59.10
2019-04-05T16:53:33.077Z,59.20
2019-04-05T16:56:03.182Z,59.30
2019-04-05T16:58:33.236Z,59.40
2019-04-05T17:01:03.609Z,58.90
2019-04-05T17:03:33.640Z,60.90
2019-04-05T17:06:03.684Z,60.00
2019-04-05T17:08:33.814Z,61.00
2019-04-05T17:11:03.801Z,61.50
2019-04-05T17:13:33.834Z,61.40
2019-04-05T17:16:03.845Z,60.50
2019-04-05T17:18:33.892Z,61.90
2019-04-05T17:21:03.957Z,61.90
2019-04-05T17:23:34.085Z,62.80
2019-04-05T17:26:04.117Z,61.90
2019-04-05T17:28:34.186Z,62.50
2019-04-05T17:31:04.230Z,61.50
2019-04-05T17:33:34.276Z,61.60
2019-04-05T17:36:04.276Z,61.70
2019-04-05T17:38:34.362Z,62.50
2019-04-05T17:41:04.550Z,62.80
2019-04-05T17:43:36.639Z,63.10
2019-04-05T17:46:09.838Z,64.10
2019-04-05T17:48:42.597Z,63.00
2019-04-05T17:51:12.637Z,64.50
2019-04-05T17:53:42.649Z,64.80
2019-04-05T17:56:13.910Z,64.90
2019-04-05T17:58:44.107Z,64.20
2019-04-05T18:01:15.344Z,64.60
2019-04-05T18:03:45.511Z,65.40
2019-04-05T18:06:15.534Z,63.80
2019-04-05T18:08:45.486Z,65.20
2019-04-05T18:11:15.563Z,65.70
2019-04-05T18:13:45.609Z,65.40
2019-04-05T18:16:15.609Z,64.80
2019-04-05T18:18:45.685Z,65.90
2019-04-05T18:21:15.684Z,65.70
2019-04-05T18:23:45.737Z,66.50
2019-04-05T18:26:15.733Z,66.60
2019-04-05T18:28:45.755Z,66.60
2019-04-05T18:31:15.800Z,66.90
2019-04-05T18:33:45.821Z,67.20
2019-04-05T18:36:16.270Z,66.80
2019-04-05T18:38:46.285Z,67.50
2019-04-05T18:41:16.337Z,68.40
2019-04-05T18:43:46.369Z,68.70
2019-04-05T18:46:18.501Z,68.40
2019-04-05T18:48:48.552Z,69.00
2019-04-05T18:51:18.560Z,69.80
2019-04-05T18:53:51.187Z,70.00
2019-04-05T18:56:23.284Z,69.90
2019-04-05T18:58:55.031Z,70.40
2019-04-05T19:01:28.234Z,70.90
2019-04-05T19:03:58.273Z,70.60
2019-04-05T19:06:28.431Z,71.00
2019-04-05T19:08:58.494Z,70.50
2019-04-05T19:11:28.510Z,70.70
2019-04-05T19:14:11.572Z,71.10
2019-04-05T19:16:54.081Z,71.30
2019-04-05T19:19:30.467Z,71.70
2019-04-05T19:21:55.812Z,72.30
2019-04-05T19:24:49.799Z,72.00
2019-04-05T19:27:18.143Z,72.60
2019-04-05T19:29:55.458Z,72.90
2019-04-05T19:49:39.229Z,75.20
2019-04-05T19:52:09.285Z,75.50
2019-04-05T19:54:39.279Z,75.90
2019-04-05T19:57:09.393Z,75.80
2019-04-05T19:59:39.393Z,76.00
2019-04-05T20:02:12.013Z,75.70
2019-04-05T20:04:42.038Z,76.30
2019-04-05T20:07:12.181Z,76.50
2019-04-05T20:09:42.275Z,76.60
2019-04-05T20:12:12.268Z,76.50
2019-04-05T20:14:42.264Z,76.50
2019-04-05T20:17:12.334Z,76.70
2019-04-05T20:19:42.356Z,76.60
2019-04-05T20:22:12.338Z,76.90
2019-04-05T20:24:42.372Z,77.30
2019-04-05T20:27:13.621Z,77.60
2019-04-05T20:29:43.629Z,78.00
2019-04-05T20:32:16.412Z,78.50
2019-04-05T20:34:46.433Z,78.50
2019-04-05T20:37:16.445Z,79.20
2019-04-05T20:39:46.493Z,79.30
2019-04-05T20:42:16.539Z,79.20
2019-04-05T20:44:46.623Z,79.00
2019-04-05T20:47:16.671Z,79.50
2019-04-05T20:49:46.715Z,79.60
2019-04-05T20:52:16.740Z,79.70
2019-04-05T20:54:49.478Z,79.80
2019-04-05T20:57:19.500Z,79.90
2019-04-05T20:59:49.425Z,80.00
2019-04-05T21:02:21.054Z,79.90
2019-04-05T21:04:52.202Z,80.00
2019-04-05T21:07:24.536Z,79.80
2019-04-05T21:09:56.260Z,80.50
2019-04-05T21:12:27.923Z,79.50
2019-04-05T21:14:59.970Z,79.80
2019-04-05T21:17:30.119Z,79.80
2019-04-05T21:20:01.376Z,79.70
2019-04-05T21:22:34.558Z,79.70
2019-04-05T21:25:05.763Z,79.60
2019-04-05T21:27:35.966Z,79.80
2019-04-05T21:30:06.875Z,80.00
2019-04-05T21:32:37.177Z,80.10
2019-04-05T21:35:07.270Z,80.10
2019-04-05T21:37:37.305Z,80.30
2019-04-05T21:40:07.794Z,80.50
2019-04-05T21:42:38.004Z,80.20
2019-04-05T21:45:08.430Z,80.10
2019-04-05T21:47:38.473Z,80.00
2019-04-05T21:50:08.513Z,80.60
2019-04-05T21:52:38.499Z,80.40
2019-04-05T21:55:08.489Z,79.70
2019-04-05T21:57:38.550Z,81.00
2019-04-05T22:00:13.814Z,81.30
2019-04-05T22:02:44.049Z,81.40
2019-04-05T22:05:14.205Z,81.50
2019-04-05T22:07:44.344Z,82.50
2019-04-05T22:10:16.645Z,81.70
2019-04-05T22:12:46.770Z,82.90
2019-04-05T22:15:16.983Z,81.90
2019-04-05T22:17:47.018Z,82.50
2019-04-05T22:20:16.957Z,82.00
2019-04-05T22:22:46.965Z,82.20
2019-04-05T22:25:17.004Z,82.30
2019-04-05T22:27:49.350Z,82.00
2019-04-05T22:30:19.400Z,81.70
2019-04-05T22:32:52.679Z,81.70
2019-04-05T22:35:22.654Z,82.10
2019-04-05T22:37:55.364Z,82.80
2019-04-05T22:40:25.363Z,82.60
2019-04-05T22:42:55.375Z,83.00
2019-04-05T22:45:25.389Z,82.60
2019-04-05T22:47:55.370Z,82.80
2019-04-05T22:50:25.383Z,83.00
2019-04-05T22:52:55.441Z,83.60
2019-04-05T22:55:25.455Z,82.70
2019-04-05T22:57:55.493Z,82.70
2019-04-05T23:00:25.486Z,83.10
2019-04-05T23:02:58.562Z,83.90
2019-04-05T23:05:28.543Z,82.90
2019-04-05T23:07:58.573Z,83.10
2019-04-05T23:10:28.556Z,84.40
2019-04-05T23:12:58.586Z,84.60
2019-04-05T23:15:28.712Z,83.90
2019-04-05T23:18:01.278Z,84.40
2019-04-05T23:20:31.334Z,84.70
2019-04-05T23:23:01.310Z,84.20
2019-04-05T23:25:31.338Z,84.60
2019-04-05T23:28:01.351Z,84.00
2019-04-05T23:30:31.940Z,84.70
2019-04-05T23:33:01.929Z,83.70
2019-04-05T23:35:31.962Z,83.60
2019-04-05T23:38:02.144Z,84.50
2019-04-05T23:40:33.662Z,83.20
2019-04-05T23:43:03.689Z,83.60
2019-04-05T23:45:33.675Z,83.10
2019-04-05T23:48:03.743Z,83.80
2019-04-05T23:50:33.728Z,83.80
2019-04-05T23:53:03.724Z,83.90
2019-04-05T23:55:33.910Z,84.80
2019-04-05T23:58:03.918Z,84.20
